Time;durP1;ratioP1;P1;durP2;ratioP2;P2;SDS_P1;SDS_P2;PMS_P1;PMS_P2;Temp;Humidity;BMP_temperature;BMP_pressure;BME280_temperature;BME280_humidity;BME280_pressure;Samples;Min_cycle;Max_cycle;Signal;HPM_P1;HPM_P2
2023/06/03 00:01:21;;;;;;;1.97;1.00;;;3.00;99.90;;;;;;8255376;28;20230;-73
2023/06/03 00:05:23;;;;;;;2.07;1.20;;;2.90;99.90;;;;;;8261921;28;20211;-72
2023/06/03 00:09:24;;;;;;;1.77;1.10;;;2.80;99.90;;;;;;8270888;28;20230;-72
2023/06/03 00:13:25;;;;;;;2.57;1.50;;;2.80;99.90;;;;;;8267296;28;20187;-72
2023/06/03 00:17:27;;;;;;;1.53;1.00;;;2.70;99.90;;;;;;8253605;28;20411;-74
2023/06/03 00:21:33;;;;;;;3.33;1.30;;;2.70;99.90;;;;;;8250252;28;20199;-75
2023/06/03 00:25:34;;;;;;;2.37;1.20;;;2.60;99.90;;;;;;8271395;28;20188;-74
2023/06/03 00:29:35;;;;;;;2.10;1.20;;;2.60;99.90;;;;;;8271219;28;20211;-73
2023/06/03 00:33:37;;;;;;;2.83;1.23;;;2.50;99.90;;;;;;8266512;28;20283;-73
2023/06/03 00:37:38;;;;;;;3.00;1.47;;;2.50;99.90;;;;;;8266138;28;20182;-73
2023/06/03 00:41:39;;;;;;;5.60;1.40;;;2.40;99.90;;;;;;8267740;28;20187;-74
2023/06/03 00:45:40;;;;;;;4.13;1.33;;;2.40;99.90;;;;;;8267918;28;20225;-73
2023/06/03 00:49:41;;;;;;;2.83;1.03;;;2.40;99.90;;;;;;8272565;28;20218;-74
2023/06/03 00:53:42;;;;;;;1.93;1.10;;;2.30;99.90;;;;;;8271540;28;20187;-72
2023/06/03 00:57:44;;;;;;;3.43;1.00;;;2.10;99.90;;;;;;8272163;28;20201;-72
2023/06/03 01:01:46;;;;;;;2.57;1.13;;;2.00;99.90;;;;;;8254021;28;20238;-73
2023/06/03 01:06:21;;;;;;;1.90;1.13;;;2.00;99.90;;;;;;8255955;28;20215;-74
2023/06/03 01:10:52;;;;;;;1.37;0.80;;;1.90;99.90;;;;;;8258089;28;20217;-74
2023/06/03 01:15:19;;;;;;;2.10;1.37;;;1.90;99.90;;;;;;8269872;28;20206;-73
2023/06/03 01:19:48;;;;;;;2.80;1.57;;;1.80;99.90;;;;;;8257339;28;20272;-73
2023/06/03 01:23:49;;;;;;;1.93;1.23;;;1.70;1.00;;;;;;8267579;28;20201;-73
2023/06/03 01:27:51;;;;;;;2.37;1.10;;;1.60;1.00;;;;;;8266909;28;20245;-73
2023/06/03 01:31:58;;;;;;;1.73;1.20;;;1.60;1.00;;;;;;8264437;28;20207;-73
2023/06/03 01:36:03;;;;;;;3.10;1.10;;;1.60;1.00;;;;;;8269567;28;20182;-73
2023/06/03 01:40:05;;;;;;;2.27;1.20;;;1.50;1.00;;;;;;8266953;28;20213;-73
2023/06/03 01:44:06;;;;;;;4.70;1.23;;;1.50;1.00;;;;;;8283778;28;20194;-74
2023/06/03 01:48:07;;;;;;;2.27;1.37;;;1.40;1.00;;;;;;8257092;28;20189;-73
2023/06/03 01:52:09;;;;;;;1.93;1.10;;;1.30;1.00;;;;;;8283791;28;20216;-75
2023/06/03 01:56:10;;;;;;;2.07;1.00;;;1.30;1.00;;;;;;8263588;28;20194;-73
2023/06/03 02:00:16;;;;;;;2.60;0.90;;;1.20;1.00;;;;;;8279533;28;20198;-74
2023/06/03 02:04:17;;;;;;;3.10;1.40;;;1.10;1.00;;;;;;8271968;28;20223;-77
2023/06/03 02:08:18;;;;;;;1.90;1.10;;;1.10;1.00;;;;;;8264738;28;20263;-74
2023/06/03 02:12:19;;;;;;;1.40;0.90;;;1.10;1.00;;;;;;8255489;28;20187;-74
2023/06/03 02:16:20;;;;;;;2.10;1.33;;;1.00;1.00;;;;;;8281648;28;20256;-75
2023/06/03 02:20:22;;;;;;;1.73;1.10;;;0.90;1.00;;;;;;8254481;28;20188;-74
2023/06/03 02:24:24;;;;;;;1.77;0.97;;;0.90;1.00;;;;;;8269626;28;20215;-73
2023/06/03 02:28:26;;;;;;;2.23;1.20;;;0.80;1.00;;;;;;8264324;28;20193;-73
2023/06/03 02:32:27;;;;;;;2.17;1.17;;;0.80;6.30;;;;;;8267743;28;20191;-74
2023/06/03 02:36:28;;;;;;;2.17;0.87;;;0.70;27.90;;;;;;8256995;28;20188;-75
2023/06/03 02:40:29;;;;;;;1.57;0.90;;;0.70;67.80;;;;;;8263057;28;20283;-74
2023/06/03 02:44:30;;;;;;;3.07;1.33;;;0.70;96.90;;;;;;8265627;28;20242;-74
2023/06/03 02:48:31;;;;;;;3.13;1.20;;;0.70;99.90;;;;;;8253399;28;20243;-74
2023/06/03 02:52:33;;;;;;;2.80;1.37;;;0.70;99.90;;;;;;8258736;28;20189;-73
2023/06/03 02:56:35;;;;;;;3.90;1.30;;;0.70;99.90;;;;;;8269327;28;20196;-73
2023/06/03 03:00:36;;;;;;;2.23;1.23;;;0.80;99.90;;;;;;8264192;28;20204;-73
2023/06/03 03:04:38;;;;;;;2.13;1.03;;;0.80;99.90;;;;;;8256899;28;20208;-72
2023/06/03 03:08:43;;;;;;;2.00;0.97;;;1.00;99.90;;;;;;8251818;28;20197;-73
2023/06/03 03:12:52;;;;;;;2.33;1.40;;;1.10;99.90;;;;;;8272214;28;20193;-73
2023/06/03 03:16:54;;;;;;;4.67;1.50;;;1.80;99.90;;;;;;8261315;28;20190;-72
2023/06/03 03:20:55;;;;;;;3.07;1.17;;;3.00;99.90;;;;;;8272644;28;20206;-73
2023/06/03 03:24:59;;;;;;;2.90;1.10;;;4.20;1.00;;;;;;8256411;28;20347;-72
2023/06/03 03:29:00;;;;;;;1.83;1.43;;;5.20;99.90;;;;;;8270982;28;20262;-73
2023/06/03 03:33:01;;;;;;;2.23;1.20;;;6.20;99.90;;;;;;8253126;28;20210;-72
2023/06/03 03:37:04;;;;;;;1.80;1.20;;;7.10;45.20;;;;;;8269329;28;20181;-71
2023/06/03 03:41:05;;;;;;;1.43;0.90;;;8.00;1.00;;;;;;8255000;28;20232;-72
2023/06/03 03:45:15;;;;;;;1.70;1.20;;;8.70;1.00;;;;;;8259058;28;20195;-73
2023/06/03 03:49:28;;;;;;;2.63;1.10;;;9.40;1.00;;;;;;8258594;28;20222;-73
2023/06/03 03:53:32;;;;;;;2.17;1.20;;;10.00;1.00;;;;;;8273683;28;20180;-73
2023/06/03 03:57:36;;;;;;;9.77;1.53;;;10.60;1.00;;;;;;8274325;28;20196;-73
2023/06/03 04:01:39;;;;;;;3.33;1.20;;;11.20;1.00;;;;;;8271116;28;20195;-72
2023/06/03 04:05:43;;;;;;;5.53;1.40;;;11.70;1.00;;;;;;8269592;28;20207;-70
2023/06/03 04:09:45;;;;;;;4.03;1.50;;;12.20;1.00;;;;;;8252366;28;20204;-70
2023/06/03 04:13:46;;;;;;;3.73;2.03;;;12.40;1.00;;;;;;8272179;28;20187;-71
2023/06/03 04:17:47;;;;;;;4.03;2.00;;;12.30;1.00;;;;;;8261085;28;20183;-70
2023/06/03 04:21:48;;;;;;;5.33;2.40;;;13.00;1.00;;;;;;8258031;28;20201;-71
2023/06/03 04:25:50;;;;;;;7.20;2.40;;;13.50;1.00;;;;;;8260444;28;20191;-70
2023/06/03 04:29:51;;;;;;;5.93;3.00;;;13.50;1.00;;;;;;8269512;28;20214;-71
2023/06/03 04:33:55;;;;;;;9.50;3.93;;;13.80;1.00;;;;;;8255209;28;20187;-71
2023/06/03 04:37:59;;;;;;;7.03;3.43;;;13.80;1.00;;;;;;8271753;28;20276;-72
2023/06/03 04:42:07;;;;;;;3.37;2.40;;;13.70;1.00;;;;;;8271551;28;20256;-72
2023/06/03 04:46:09;;;;;;;6.60;2.77;;;13.90;1.00;;;;;;8265475;28;20201;-72
2023/06/03 04:50:19;;;;;;;3.80;1.70;;;14.10;1.00;;;;;;8269062;28;20202;-72
2023/06/03 04:54:23;;;;;;;2.30;1.43;;;14.30;1.00;;;;;;8250063;28;20184;-70
2023/06/03 04:58:24;;;;;;;2.40;1.30;;;14.70;1.00;;;;;;8255349;28;20269;-71
2023/06/03 05:02:29;;;;;;;2.97;1.40;;;15.20;1.00;;;;;;8272231;28;20195;-72
2023/06/03 05:06:36;;;;;;;2.90;1.53;;;15.30;1.00;;;;;;8253397;28;20187;-72
2023/06/03 05:10:37;;;;;;;2.87;1.30;;;14.90;1.00;;;;;;8253790;28;20303;-70
2023/06/03 05:14:38;;;;;;;4.50;1.63;;;13.90;1.00;;;;;;8265550;28;20188;-71
2023/06/03 05:18:46;;;;;;;2.60;1.60;;;13.20;1.00;;;;;;8262263;28;20195;-72
2023/06/03 05:22:51;;;;;;;3.57;1.37;;;12.70;1.00;;;;;;8270103;28;20183;-73
2023/06/03 05:26:53;;;;;;;4.43;1.73;;;12.20;1.00;;;;;;8250671;28;20260;-71
2023/06/03 05:30:57;;;;;;;3.73;1.60;;;11.80;1.00;;;;;;8256396;28;20365;-68
2023/06/03 05:35:01;;;;;;;2.30;1.30;;;11.60;1.00;;;;;;8251285;28;20192;-72
2023/06/03 05:39:03;;;;;;;8.20;1.40;;;11.60;1.00;;;;;;8267312;28;20282;-70
2023/06/03 05:43:03;;;;;;;1.57;0.90;;;11.70;1.00;;;;;;8271376;28;20198;-70
2023/06/03 05:47:04;;;;;;;3.53;1.43;;;11.80;1.00;;;;;;8270566;28;20274;-72
2023/06/03 05:51:06;;;;;;;2.83;1.30;;;11.80;1.00;;;;;;8255626;28;20207;-73
2023/06/03 05:55:12;;;;;;;2.10;1.20;;;12.00;1.00;;;;;;8272162;28;20193;-73
2023/06/03 05:59:13;;;;;;;3.90;1.10;;;12.00;1.00;;;;;;8260456;28;20200;-73
2023/06/03 06:03:18;;;;;;;3.93;1.30;;;12.10;1.00;;;;;;8274651;28;20213;-72
2023/06/03 06:07:22;;;;;;;1.73;1.10;;;12.10;1.00;;;;;;8255885;28;20194;-73
2023/06/03 06:11:23;;;;;;;2.47;1.20;;;12.20;1.00;;;;;;8267605;28;20222;-71
2023/06/03 06:15:29;;;;;;;2.30;1.23;;;12.20;1.00;;;;;;8285811;28;20198;-70
2023/06/03 06:19:30;;;;;;;3.20;1.20;;;12.20;1.00;;;;;;8252997;28;20188;-72
2023/06/03 06:23:31;;;;;;;2.57;1.03;;;12.10;1.00;;;;;;8258750;28;20253;-73
2023/06/03 06:27:46;;;;;;;6.00;1.47;;;12.30;1.00;;;;;;8255470;28;20198;-74
2023/06/03 06:31:51;;;;;;;2.57;1.07;;;12.50;1.00;;;;;;8251862;28;20217;-73
2023/06/03 06:36:00;;;;;;;2.57;0.90;;;12.50;1.00;;;;;;8258321;28;20352;-72
2023/06/03 06:40:01;;;;;;;3.10;1.43;;;12.70;1.00;;;;;;8276375;28;20188;-69
2023/06/03 06:44:05;;;;;;;2.23;1.23;;;12.80;1.00;;;;;;8286498;28;20237;-72
2023/06/03 06:48:09;;;;;;;2.43;1.13;;;12.90;1.00;;;;;;8264465;28;20198;-70
2023/06/03 06:52:15;;;;;;;3.63;1.30;;;13.00;1.00;;;;;;8262841;28;20221;-72
2023/06/03 06:56:18;;;;;;;2.67;1.03;;;13.10;1.00;;;;;;8259678;28;20258;-68
2023/06/03 07:00:22;;;;;;;3.13;1.13;;;13.20;1.00;;;;;;8278190;28;20255;-70
2023/06/03 07:04:23;;;;;;;1.50;1.07;;;13.40;1.00;;;;;;8265980;28;20211;-71
2023/06/03 07:08:25;;;;;;;3.63;1.23;;;13.40;1.00;;;;;;8278388;28;20183;-71
2023/06/03 07:12:28;;;;;;;2.67;1.30;;;13.50;1.00;;;;;;8281797;28;20208;-72
2023/06/03 07:16:30;;;;;;;3.57;1.10;;;13.60;1.00;;;;;;8274247;28;20184;-71
2023/06/03 07:20:36;;;;;;;5.80;1.00;;;13.70;1.00;;;;;;8275474;28;20191;-72
2023/06/03 07:24:39;;;;;;;4.10;1.30;;;13.80;1.00;;;;;;8262895;28;20423;-67
2023/06/03 07:28:40;;;;;;;2.50;1.00;;;14.00;1.00;;;;;;8265562;28;20195;-73
2023/06/03 07:32:42;;;;;;;1.67;1.30;;;14.10;1.00;;;;;;8262240;28;20245;-72
2023/06/03 07:36:43;;;;;;;3.30;1.27;;;14.20;1.00;;;;;;8288798;28;20230;-71
2023/06/03 07:40:46;;;;;;;4.17;1.13;;;14.40;1.00;;;;;;8259050;28;20299;-73
2023/06/03 07:44:48;;;;;;;4.60;1.20;;;14.60;1.00;;;;;;8259078;28;20188;-69
2023/06/03 07:48:50;;;;;;;3.30;1.07;;;14.60;1.00;;;;;;8269490;28;20198;-71
2023/06/03 07:52:59;;;;;;;2.20;1.00;;;14.70;1.00;;;;;;8273457;28;20191;-71
2023/06/03 07:57:01;;;;;;;2.20;0.97;;;14.80;1.00;;;;;;8273370;28;20180;-71
2023/06/03 08:01:04;;;;;;;4.33;1.53;;;14.90;1.00;;;;;;8273681;28;20184;-68
2023/06/03 08:05:05;;;;;;;4.10;1.00;;;15.00;1.00;;;;;;8273787;28;20219;-73
2023/06/03 08:09:06;;;;;;;1.73;0.80;;;15.10;1.00;;;;;;8270599;28;20243;-68
2023/06/03 08:13:07;;;;;;;1.13;0.80;;;15.20;1.00;;;;;;8261587;28;20194;-69
2023/06/03 08:17:13;;;;;;;1.10;0.80;;;15.20;1.00;;;;;;8261978;28;20188;-72
2023/06/03 08:21:15;;;;;;;2.57;1.10;;;15.30;1.00;;;;;;8273849;28;20287;-73
2023/06/03 08:25:16;;;;;;;1.70;1.00;;;15.20;1.00;;;;;;8269584;28;20222;-71
2023/06/03 08:29:18;;;;;;;6.37;2.07;;;15.20;1.00;;;;;;8276365;28;20386;-72
2023/06/03 08:33:19;;;;;;;3.27;1.83;;;15.30;1.00;;;;;;8264560;28;20192;-72
2023/06/03 08:37:21;;;;;;;4.70;2.10;;;15.30;1.00;;;;;;8264947;28;20241;-71
2023/06/03 08:41:33;;;;;;;2.87;1.27;;;15.30;1.00;;;;;;8262008;28;20241;-70
2023/06/03 08:45:45;;;;;;;1.97;1.00;;;15.30;1.00;;;;;;8272626;28;20207;-70
2023/06/03 08:50:05;;;;;;;2.67;1.07;;;15.30;1.00;;;;;;8261563;28;20303;-72
2023/06/03 08:54:14;;;;;;;2.97;0.90;;;15.60;1.00;;;;;;8274548;28;20199;-68
2023/06/03 08:58:19;;;;;;;3.87;1.00;;;15.80;1.00;;;;;;8286189;28;20208;-72
2023/06/03 09:02:21;;;;;;;1.63;1.00;;;16.00;1.00;;;;;;8277860;28;20258;-71
2023/06/03 09:06:22;;;;;;;2.80;1.00;;;15.90;1.00;;;;;;8276463;28;20214;-72
2023/06/03 09:10:26;;;;;;;6.27;1.37;;;15.80;1.00;;;;;;8261022;28;20303;-74
2023/06/03 09:14:28;;;;;;;3.10;1.57;;;15.90;1.00;;;;;;8261749;28;20237;-71
2023/06/03 09:18:30;;;;;;;1.40;0.80;;;15.90;1.00;;;;;;8259510;28;20195;-70
2023/06/03 09:22:31;;;;;;;1.43;0.77;;;15.90;1.00;;;;;;8259689;28;20190;-74
2023/06/03 09:26:32;;;;;;;3.13;0.87;;;15.90;1.00;;;;;;8288269;28;20282;-73
2023/06/03 09:30:38;;;;;;;2.27;1.10;;;15.90;1.00;;;;;;8271884;28;20219;-72
2023/06/03 09:34:42;;;;;;;2.33;0.93;;;16.10;1.00;;;;;;8255220;28;20207;-71
2023/06/03 09:38:51;;;;;;;1.33;0.77;;;16.10;1.00;;;;;;8278022;28;20196;-70
2023/06/03 09:42:52;;;;;;;2.37;0.80;;;16.30;1.00;;;;;;8282436;28;20215;-71
2023/06/03 09:46:54;;;;;;;2.60;0.93;;;16.60;1.00;;;;;;8261858;28;20184;-72
2023/06/03 09:50:59;;;;;;;4.50;0.90;;;16.70;1.00;;;;;;8269960;28;20218;-72
2023/06/03 09:55:01;;;;;;;62.07;3.80;;;16.80;1.00;;;;;;8269824;28;20188;-71
2023/06/03 09:59:26;;;;;;;2.23;1.13;;;16.90;1.00;;;;;;8272870;28;20219;-72
2023/06/03 10:03:29;;;;;;;2.50;0.90;;;16.90;1.00;;;;;;8262071;28;20210;-72
2023/06/03 10:07:30;;;;;;;1.73;0.80;;;16.90;1.00;;;;;;8257545;28;20195;-72
2023/06/03 10:11:46;;;;;;;3.07;0.80;;;17.10;1.00;;;;;;8274773;28;20302;-72
2023/06/03 10:15:53;;;;;;;1.67;0.80;;;17.20;1.00;;;;;;8278690;28;20187;-72
2023/06/03 10:19:54;;;;;;;1.13;0.60;;;17.10;1.00;;;;;;8289118;28;20328;-73
2023/06/03 10:24:00;;;;;;;2.47;0.90;;;17.10;1.00;;;;;;8278860;28;20198;-71
2023/06/03 10:28:01;;;;;;;2.17;0.87;;;17.10;1.00;;;;;;8276562;28;20234;-70
2023/06/03 10:32:08;;;;;;;6.00;0.90;;;17.30;1.00;;;;;;8261190;28;20210;-67
2023/06/03 10:36:12;;;;;;;4.70;1.00;;;17.40;1.00;;;;;;8263028;28;20192;-71
2023/06/03 10:40:15;;;;;;;3.20;0.87;;;17.60;1.00;;;;;;8263558;28;20199;-72
2023/06/03 10:44:19;;;;;;;1.97;0.97;;;17.50;1.00;;;;;;8275373;28;20254;-70
2023/06/03 10:48:23;;;;;;;1.77;0.80;;;17.50;1.00;;;;;;8261985;28;20191;-71
2023/06/03 10:53:01;;;;;;;29.40;3.67;;;17.50;1.00;;;;;;8288386;28;20230;-71
2023/06/03 10:57:13;;;;;;;2.57;0.57;;;17.60;1.00;;;;;;8279265;28;20265;-70
2023/06/03 11:01:15;;;;;;;1.63;0.70;;;17.60;1.00;;;;;;8278534;28;20206;-72
2023/06/03 11:05:29;;;;;;;1.40;0.77;;;17.60;1.00;;;;;;8278822;28;20216;-67
2023/06/03 11:09:40;;;;;;;2.57;1.00;;;17.70;1.00;;;;;;8278327;28;20290;-71
2023/06/03 11:13:41;;;;;;;4.37;1.13;;;17.90;1.00;;;;;;8275858;28;20183;-72
2023/06/03 11:18:23;;;;;;;6.70;0.93;;;18.00;1.00;;;;;;8272686;28;20247;-68
2023/06/03 11:22:30;;;;;;;5.73;1.13;;;18.10;1.00;;;;;;8290973;28;20203;-72
2023/06/03 11:26:35;;;;;;;3.93;2.20;;;18.30;1.00;;;;;;8277896;28;20191;-72
2023/06/03 11:30:57;;;;;;;1.63;0.80;;;18.50;1.00;;;;;;8270203;28;20222;-71
2023/06/03 11:35:04;;;;;;;1.87;0.73;;;18.60;1.00;;;;;;8257847;28;20247;-71
2023/06/03 11:39:05;;;;;;;2.80;0.90;;;18.50;1.00;;;;;;8276117;28;20207;-74
2023/06/03 11:43:07;;;;;;;5.40;0.90;;;18.60;1.00;;;;;;8261853;28;20198;-74
2023/06/03 11:47:14;;;;;;;2.20;0.70;;;18.50;1.00;;;;;;8260101;28;20282;-74
2023/06/03 11:51:16;;;;;;;2.70;0.80;;;18.70;1.00;;;;;;8263211;28;20227;-73
2023/06/03 11:55:31;;;;;;;2.60;0.70;;;18.70;1.00;;;;;;8263550;28;20195;-73
2023/06/03 11:59:43;;;;;;;3.83;1.30;;;18.70;1.00;;;;;;8275687;28;20273;-70
2023/06/03 12:04:01;;;;;;;3.43;0.80;;;18.70;1.00;;;;;;8259135;28;20235;-73
2023/06/03 12:08:03;;;;;;;1.97;0.90;;;18.70;1.00;;;;;;8268355;28;20192;-69
2023/06/03 12:12:08;;;;;;;1.00;0.50;;;18.70;1.00;;;;;;8259394;28;20223;-74
2023/06/03 12:16:09;;;;;;;2.83;0.90;;;18.80;1.00;;;;;;8292368;28;20198;-69
2023/06/03 12:20:28;;;;;;;2.40;0.80;;;18.80;1.00;;;;;;8262629;28;20191;-74
2023/06/03 12:24:50;;;;;;;5.70;1.10;;;18.80;1.00;;;;;;8273218;28;20223;-68
2023/06/03 12:29:03;;;;;;;1.00;0.50;;;18.80;1.00;;;;;;8255623;28;20195;-67
2023/06/03 12:33:04;;;;;;;0.90;0.50;;;18.90;1.00;;;;;;8251671;28;20222;-67
2023/06/03 12:37:06;;;;;;;2.63;0.53;;;18.80;1.00;;;;;;8265997;28;20190;-68
2023/06/03 12:41:11;;;;;;;4.67;0.87;;;18.80;1.00;;;;;;8251626;28;20191;-67
2023/06/03 12:45:29;;;;;;;1.53;0.60;;;18.80;1.00;;;;;;8268819;28;20199;-69
2023/06/03 12:49:30;;;;;;;1.03;0.60;;;18.90;1.00;;;;;;8268154;28;20204;-66
2023/06/03 12:53:32;;;;;;;1.47;0.70;;;18.90;1.00;;;;;;8252276;28;20195;-68
2023/06/03 12:57:34;;;;;;;1.13;0.60;;;18.90;1.00;;;;;;8270791;28;20277;-66
2023/06/03 13:01:35;;;;;;;2.63;0.90;;;18.90;1.00;;;;;;8259367;28;20258;-68
2023/06/03 13:05:37;;;;;;;0.63;0.40;;;18.80;1.00;;;;;;8256758;28;20249;-65
2023/06/03 13:09:38;;;;;;;1.70;0.50;;;18.80;1.00;;;;;;8254883;28;20218;-70
2023/06/03 13:13:40;;;;;;;2.07;0.53;;;18.90;1.00;;;;;;8259056;28;20278;-69
2023/06/03 13:17:41;;;;;;;1.37;0.80;;;18.80;1.00;;;;;;8250797;28;20241;-68
2023/06/03 13:21:42;;;;;;;1.33;0.40;;;18.90;1.00;;;;;;8266756;28;20186;-66
2023/06/03 13:25:43;;;;;;;0.37;0.27;;;19.00;1.00;;;;;;8266547;28;20183;-69
2023/06/03 13:29:44;;;;;;;1.30;0.50;;;19.10;1.00;;;;;;8268168;28;20210;-64
2023/06/03 13:33:45;;;;;;;2.70;0.40;;;19.10;1.00;;;;;;8262916;28;20186;-67
2023/06/03 13:37:46;;;;;;;1.30;0.50;;;19.00;1.00;;;;;;8251918;28;20195;-67
2023/06/03 13:41:51;;;;;;;2.27;0.50;;;19.00;1.00;;;;;;8265039;28;20199;-68
2023/06/03 13:45:52;;;;;;;0.90;0.70;;;19.20;1.00;;;;;;8266278;28;20188;-68
2023/06/03 13:49:54;;;;;;;2.80;0.93;;;19.20;1.00;;;;;;8247725;28;20207;-67
2023/06/03 13:53:56;;;;;;;1.10;0.60;;;19.20;1.00;;;;;;8254014;28;20194;-66
2023/06/03 13:57:59;;;;;;;0.93;0.60;;;19.30;1.00;;;;;;8283324;28;20214;-73
2023/06/03 14:02:00;;;;;;;1.43;0.67;;;19.20;1.00;;;;;;8286240;28;20192;-70
2023/06/03 14:06:01;;;;;;;1.47;0.70;;;19.20;1.00;;;;;;8267029;28;20203;-71
2023/06/03 14:10:05;;;;;;;1.47;0.77;;;19.30;1.00;;;;;;8270609;28;20226;-72
2023/06/03 14:14:12;;;;;;;1.10;0.60;;;19.20;1.00;;;;;;8250785;28;20290;-73
2023/06/03 14:18:13;;;;;;;3.00;1.33;;;19.30;1.00;;;;;;8251726;28;20192;-73
2023/06/03 14:22:14;;;;;;;1.50;0.90;;;19.20;1.00;;;;;;8256201;28;20246;-70
2023/06/03 14:26:15;;;;;;;2.10;1.23;;;19.20;1.00;;;;;;8256491;28;20199;-72
2023/06/03 14:30:16;;;;;;;2.97;1.50;;;19.20;1.00;;;;;;8252277;28;20220;-73
2023/06/03 14:34:17;;;;;;;4.00;2.97;;;19.30;1.00;;;;;;8253827;28;20203;-70
2023/06/03 14:38:21;;;;;;;0.80;0.60;;;19.40;1.00;;;;;;8265941;28;20195;-71
2023/06/03 14:42:26;;;;;;;0.70;0.40;;;19.40;1.00;;;;;;8257273;28;20196;-70
2023/06/03 14:46:27;;;;;;;1.67;0.53;;;19.30;1.00;;;;;;8283312;28;20222;-70
2023/06/03 14:50:30;;;;;;;1.07;0.43;;;19.30;1.00;;;;;;8246981;28;20219;-71
2023/06/03 14:54:37;;;;;;;1.90;0.70;;;19.30;1.00;;;;;;8258205;28;20222;-72
2023/06/03 14:58:38;;;;;;;1.33;0.57;;;19.40;1.00;;;;;;8260054;28;20199;-73
2023/06/03 15:02:39;;;;;;;1.97;0.50;;;19.30;1.00;;;;;;8262078;28;20215;-74
2023/06/03 15:06:40;;;;;;;2.57;0.40;;;19.20;1.00;;;;;;8288077;28;20196;-72
2023/06/03 15:10:42;;;;;;;0.87;0.40;;;19.20;1.00;;;;;;8254231;28;20225;-73
2023/06/03 15:14:43;;;;;;;0.90;0.53;;;19.10;1.00;;;;;;8271859;28;20237;-72
2023/06/03 15:18:44;;;;;;;2.43;0.50;;;19.20;1.00;;;;;;8258165;28;20328;-72
2023/06/03 15:22:45;;;;;;;0.90;0.77;;;19.20;1.00;;;;;;8274458;28;20241;-72
2023/06/03 15:26:50;;;;;;;2.50;1.60;;;19.20;1.00;;;;;;8257724;28;20195;-71
2023/06/03 15:30:51;;;;;;;1.37;0.80;;;19.10;1.00;;;;;;8269691;28;20253;-71
2023/06/03 15:34:52;;;;;;;3.53;1.17;;;19.20;1.00;;;;;;8257333;28;20210;-72
2023/06/03 15:38:53;;;;;;;3.63;0.73;;;19.20;1.00;;;;;;8255526;28;20192;-71
2023/06/03 15:42:57;;;;;;;3.07;0.80;;;19.10;1.00;;;;;;8269112;28;20203;-69
2023/06/03 15:46:58;;;;;;;1.47;0.83;;;19.10;1.00;;;;;;8259551;28;20230;-71
2023/06/03 15:51:00;;;;;;;2.20;1.00;;;19.10;1.00;;;;;;8260488;28;20230;-70
2023/06/03 15:55:04;;;;;;;2.37;0.93;;;19.10;1.00;;;;;;8261566;28;20190;-70
2023/06/03 15:59:05;;;;;;;2.47;0.50;;;19.10;1.00;;;;;;8269613;28;20203;-68
2023/06/03 16:03:07;;;;;;;1.40;0.40;;;19.00;1.00;;;;;;8255405;28;20231;-71
2023/06/03 16:07:08;;;;;;;1.00;0.60;;;18.90;1.00;;;;;;8273808;28;20316;-73
2023/06/03 16:11:09;;;;;;;2.67;0.50;;;18.80;1.00;;;;;;8261442;28;20219;-71
2023/06/03 16:15:11;;;;;;;1.23;0.80;;;18.80;1.00;;;;;;8254706;28;20191;-71
2023/06/03 16:19:12;;;;;;;0.80;0.50;;;18.80;1.00;;;;;;8257232;28;20222;-71
2023/06/03 16:23:13;;;;;;;1.57;0.83;;;18.90;1.00;;;;;;8266461;28;20210;-72
2023/06/03 16:27:15;;;;;;;1.43;0.80;;;18.80;1.00;;;;;;8274140;28;20241;-70
2023/06/03 16:31:19;;;;;;;2.27;1.20;;;18.80;1.00;;;;;;8272533;28;20218;-71
2023/06/03 16:35:20;;;;;;;1.80;1.00;;;18.70;1.00;;;;;;8269683;28;20191;-70
2023/06/03 16:39:21;;;;;;;4.67;1.33;;;18.60;1.00;;;;;;8272254;28;20203;-69
2023/06/03 16:43:25;;;;;;;1.37;1.00;;;18.60;1.00;;;;;;8269633;28;20191;-71
2023/06/03 16:47:26;;;;;;;1.40;1.20;;;18.60;1.00;;;;;;8268554;28;20285;-72
2023/06/03 16:51:28;;;;;;;2.47;1.03;;;18.60;1.00;;;;;;8258690;28;20250;-70
2023/06/03 16:55:29;;;;;;;2.90;0.60;;;18.60;1.00;;;;;;8258117;28;20199;-71
2023/06/03 16:59:34;;;;;;;0.93;0.73;;;18.80;1.00;;;;;;8252725;28;20207;-69
2023/06/03 17:03:36;;;;;;;2.77;0.87;;;18.90;1.00;;;;;;8269620;28;20218;-68
2023/06/03 17:07:37;;;;;;;1.97;1.50;;;18.90;1.00;;;;;;8253638;28;20262;-73
2023/06/03 17:11:41;;;;;;;3.10;2.40;;;18.90;1.00;;;;;;8240961;28;20273;-72
2023/06/03 17:15:43;;;;;;;3.03;1.20;;;19.20;1.00;;;;;;8282314;28;20187;-70
2023/06/03 17:19:47;;;;;;;3.63;1.30;;;19.90;1.00;;;;;;8268425;28;20195;-72
2023/06/03 17:23:48;;;;;;;2.70;0.87;;;20.80;1.00;;;;;;8269483;28;20227;-69
2023/06/03 17:27:49;;;;;;;1.30;1.07;;;21.60;1.00;;;;;;8286493;28;20195;-69
2023/06/03 17:31:53;;;;;;;1.47;0.80;;;22.40;1.00;;;;;;8268195;28;20242;-72
2023/06/03 17:35:54;;;;;;;0.93;0.53;;;23.20;1.00;;;;;;8258820;28;20246;-69
2023/06/03 17:39:58;;;;;;;3.30;1.63;;;23.40;1.00;;;;;;8265929;28;20202;-71
2023/06/03 17:43:59;;;;;;;2.43;1.63;;;23.90;1.00;;;;;;8268280;28;20251;-71
2023/06/03 17:48:00;;;;;;;5.47;3.07;;;24.10;1.00;;;;;;8256433;28;20199;-69
2023/06/03 17:52:01;;;;;;;2.83;2.20;;;24.00;1.00;;;;;;8260398;28;20217;-70
2023/06/03 17:56:02;;;;;;;6.13;2.23;;;24.10;1.00;;;;;;8269523;28;20187;-72
2023/06/03 18:00:03;;;;;;;1.93;1.27;;;24.20;1.00;;;;;;8253370;28;20204;-71
2023/06/03 18:04:05;;;;;;;1.60;1.20;;;24.20;1.00;;;;;;8254873;28;20215;-71
2023/06/03 18:08:06;;;;;;;2.70;1.70;;;23.50;1.00;;;;;;8247883;28;20203;-70
2023/06/03 18:12:10;;;;;;;2.83;1.40;;;23.00;1.00;;;;;;8254869;28;20222;-70
2023/06/03 18:16:11;;;;;;;4.20;1.70;;;22.50;1.00;;;;;;8251642;28;20191;-69
2023/06/03 18:20:13;;;;;;;10.37;4.67;;;22.30;1.00;;;;;;8250929;28;20200;-72
2023/06/03 18:24:14;;;;;;;19.77;11.97;;;22.60;1.00;;;;;;8254699;28;20191;-70
2023/06/03 18:28:15;;;;;;;52.83;31.50;;;22.90;1.00;;;;;;8279395;28;20199;-70
2023/06/03 18:32:17;;;;;;;68.80;50.97;;;22.80;1.00;;;;;;8262178;28;20223;-70
2023/06/03 18:36:21;;;;;;;42.27;31.90;;;22.40;1.00;;;;;;8275634;28;20187;-69
2023/06/03 18:40:22;;;;;;;15.20;11.27;;;22.10;1.00;;;;;;8269189;28;20250;-69
2023/06/03 18:44:23;;;;;;;15.40;11.83;;;21.70;1.00;;;;;;8272794;28;20369;-71
2023/06/03 18:48:24;;;;;;;9.70;6.87;;;21.10;1.00;;;;;;8257477;28;20282;-69
2023/06/03 18:52:26;;;;;;;8.83;3.93;;;20.40;1.00;;;;;;8270415;28;20246;-69
2023/06/03 18:56:27;;;;;;;9.83;2.33;;;19.30;1.00;;;;;;8256858;28;20191;-70
2023/06/03 19:00:32;;;;;;;5.33;1.80;;;18.10;1.00;;;;;;8275714;28;20201;-71
2023/06/03 19:04:34;;;;;;;3.73;1.40;;;17.00;1.00;;;;;;8269765;28;20219;-70
2023/06/03 19:08:42;;;;;;;1.90;1.00;;;16.00;1.00;;;;;;8271839;28;20234;-72
2023/06/03 19:12:46;;;;;;;1.73;0.87;;;15.30;1.00;;;;;;8260232;28;20215;-72
2023/06/03 19:16:47;;;;;;;1.33;0.93;;;14.60;1.00;;;;;;8261220;28;20258;-71
2023/06/03 19:20:51;;;;;;;1.37;0.77;;;14.00;1.00;;;;;;8268625;28;20192;-72
2023/06/03 19:24:52;;;;;;;1.60;0.70;;;13.50;1.00;;;;;;8252687;28;20191;-72
2023/06/03 19:28:57;;;;;;;2.17;0.83;;;13.10;1.00;;;;;;8271396;28;20278;-72
2023/06/03 19:32:58;;;;;;;2.70;0.90;;;12.70;1.00;;;;;;8271429;28;20219;-72
2023/06/03 19:36:59;;;;;;;1.57;0.63;;;12.40;1.00;;;;;;8261398;28;20183;-71
2023/06/03 19:41:00;;;;;;;1.40;1.00;;;12.10;1.00;;;;;;8270218;28;20189;-71
2023/06/03 19:45:01;;;;;;;1.13;0.80;;;11.80;1.00;;;;;;8274409;28;20272;-72
2023/06/03 19:49:05;;;;;;;1.50;1.20;;;11.50;1.00;;;;;;8274631;28;20213;-74
2023/06/03 19:53:07;;;;;;;2.90;1.10;;;11.20;1.00;;;;;;8272003;28;20188;-72
2023/06/03 19:57:13;;;;;;;1.47;1.20;;;10.90;1.00;;;;;;8260142;28;20198;-72
2023/06/03 20:01:17;;;;;;;1.57;1.10;;;10.70;1.00;;;;;;8274779;28;20187;-72
2023/06/03 20:05:19;;;;;;;1.50;1.00;;;10.40;1.00;;;;;;8261321;28;20207;-71
2023/06/03 20:09:21;;;;;;;2.23;1.30;;;10.20;1.00;;;;;;8275094;28;20275;-74
2023/06/03 20:13:22;;;;;;;2.80;0.90;;;10.00;1.00;;;;;;8265471;28;20196;-73
2023/06/03 20:17:24;;;;;;;2.00;1.00;;;9.80;1.00;;;;;;8259130;28;20196;-72
2023/06/03 20:21:26;;;;;;;1.63;1.20;;;9.70;1.00;;;;;;8262722;28;20195;-72
2023/06/03 20:25:26;;;;;;;1.77;1.37;;;9.50;1.00;;;;;;8275054;28;20215;-71
2023/06/03 20:29:27;;;;;;;2.17;1.20;;;9.40;1.00;;;;;;8257446;28;20230;-71
2023/06/03 20:33:28;;;;;;;2.70;1.23;;;9.20;1.00;;;;;;8272675;28;20331;-73
2023/06/03 20:37:35;;;;;;;2.30;1.30;;;9.10;1.00;;;;;;8258410;28;20250;-71
2023/06/03 20:41:36;;;;;;;2.63;1.00;;;8.90;1.00;;;;;;8271599;28;20188;-72
2023/06/03 20:45:40;;;;;;;2.53;1.40;;;8.70;1.00;;;;;;8284684;28;20199;-72
2023/06/03 20:49:41;;;;;;;2.70;1.50;;;8.60;1.00;;;;;;8270684;28;20303;-72
2023/06/03 20:53:42;;;;;;;2.13;1.40;;;8.40;1.00;;;;;;8256135;28;20331;-71
2023/06/03 20:57:43;;;;;;;2.13;1.83;;;8.20;1.00;;;;;;8258141;28;20411;-72
2023/06/03 21:01:44;;;;;;;2.87;1.70;;;8.00;1.00;;;;;;8263910;28;20199;-71
2023/06/03 21:05:45;;;;;;;2.57;1.63;;;7.90;1.00;;;;;;8259969;28;20211;-72
2023/06/03 21:09:46;;;;;;;3.47;1.97;;;7.80;1.00;;;;;;8258719;28;20216;-71
2023/06/03 21:13:47;;;;;;;2.40;1.60;;;7.70;1.00;;;;;;8258649;28;20262;-72
2023/06/03 21:17:52;;;;;;;2.93;1.70;;;7.60;1.00;;;;;;8254962;28;20200;-72
2023/06/03 21:21:53;;;;;;;3.30;1.60;;;7.50;1.00;;;;;;8274253;28;20218;-72
2023/06/03 21:25:54;;;;;;;2.97;1.60;;;7.40;1.00;;;;;;8271666;28;20200;-73